createdAt,value
2022-08-09T00:01:42.821Z,9.35
2022-08-09T00:04:35.112Z,5.50
2022-08-09T00:07:02.830Z,6.45
2022-08-09T00:09:30.174Z,6.60
2022-08-09T00:12:03.643Z,6.47
2022-08-09T00:14:37.967Z,7.50
2022-08-09T00:17:05.665Z,7.18
2022-08-09T00:19:34.036Z,4.65
2022-08-09T00:22:03.702Z,7.13
2022-08-09T00:24:32.115Z,6.25
2022-08-09T00:27:00.151Z,5.03
2022-08-09T00:30:10.119Z,6.20
2022-08-09T00:32:25.775Z,6.55
2022-08-09T00:34:54.790Z,5.63
2022-08-09T00:37:22.172Z,5.55
2022-08-09T00:40:09.282Z,8.60
2022-08-09T00:44:24.696Z,6.28
2022-08-09T00:45:27.943Z,4.25
2022-08-09T00:47:55.690Z,5.85
2022-08-09T00:50:23.591Z,4.95
2022-08-09T00:52:51.081Z,5.00
2022-08-09T00:56:03.785Z,6.28
2022-08-09T00:58:05.928Z,5.18
2022-08-09T01:00:38.815Z,4.15
2022-08-09T01:03:32.750Z,6.97
2022-08-09T01:06:53.579Z,5.93
2022-08-09T01:09:36.993Z,6.57
2022-08-09T01:12:17.865Z,6.80
2022-08-09T01:14:56.068Z,6.13
2022-08-09T01:17:43.671Z,3.85
2022-08-09T01:20:37.081Z,5.10
2022-08-09T01:23:12.424Z,4.93
2022-08-09T01:26:06.081Z,7.65
2022-08-09T01:28:33.404Z,4.95
2022-08-09T01:31:01.054Z,4.85
2022-08-09T01:33:29.817Z,4.50
2022-08-09T01:36:11.654Z,5.20
2022-08-09T01:38:44.280Z,6.63
2022-08-09T01:41:19.549Z,7.10
2022-08-09T01:44:03.828Z,5.18
2022-08-09T01:46:36.617Z,6.90
2022-08-09T01:49:17.601Z,8.55
2022-08-09T01:51:56.946Z,8.18
2022-08-09T01:54:32.824Z,5.45
2022-08-09T01:57:04.212Z,5.97
2022-08-09T01:59:32.245Z,5.18
2022-08-09T02:02:01.245Z,7.47
2022-08-09T02:04:29.922Z,7.05
2022-08-09T02:08:35.882Z,5.95
2022-08-09T02:10:29.702Z,5.40
2022-08-09T02:12:57.834Z,6.72
2022-08-09T02:15:26.993Z,7.35
2022-08-09T02:18:14.129Z,7.18
2022-08-09T02:20:43.950Z,4.65
2022-08-09T02:23:24.294Z,5.35
2022-08-09T02:28:34.899Z,8.27
2022-08-09T02:31:05.912Z,6.40
2022-08-09T02:34:06.980Z,6.15
2022-08-09T02:36:39.632Z,4.18
2022-08-09T02:39:14.633Z,5.85
2022-08-09T02:41:50.008Z,6.05
2022-08-09T02:49:38.194Z,6.00
2022-08-09T02:52:05.845Z,4.40
2022-08-09T02:54:34.996Z,6.63
2022-08-09T02:57:13.870Z,5.68
2022-08-09T03:00:21.298Z,6.32
2022-08-09T03:02:46.467Z,6.47
2022-08-09T03:05:26.410Z,5.93
2022-08-09T03:07:55.335Z,5.05
2022-08-09T03:10:23.158Z,6.57
2022-08-09T03:12:52.044Z,6.18
2022-08-09T03:15:22.796Z,4.90
2022-08-09T03:20:29.506Z,4.60
2022-08-09T03:22:58.435Z,5.50
2022-08-09T03:25:58.621Z,5.70
2022-08-09T03:28:29.813Z,5.00
2022-08-09T03:30:57.577Z,4.40
2022-08-09T03:33:53.606Z,6.13
2022-08-09T03:38:44.911Z,6.78
2022-08-09T03:41:15.506Z,4.50
2022-08-09T03:44:03.078Z,4.95
2022-08-09T03:46:31.772Z,9.23
2022-08-09T03:49:04.292Z,4.55
2022-08-09T03:51:56.910Z,5.65
2022-08-09T03:54:29.579Z,5.25
2022-08-09T03:57:18.120Z,5.13
2022-08-09T03:59:54.478Z,5.65
2022-08-09T04:02:26.792Z,7.68
2022-08-09T04:04:59.142Z,5.82
2022-08-09T04:07:47.029Z,5.93
2022-08-09T04:10:20.398Z,4.10
2022-08-09T04:12:50.903Z,6.30
2022-08-09T04:15:38.996Z,6.80
2022-08-09T04:18:16.473Z,5.28
2022-08-09T04:20:49.577Z,5.85
2022-08-09T04:23:17.539Z,3.85
2022-08-09T04:25:51.741Z,5.15
2022-08-09T04:28:34.163Z,5.85
2022-08-09T04:31:09.269Z,4.93
2022-08-09T04:33:52.713Z,5.82
2022-08-09T04:36:23.402Z,4.32
2022-08-09T04:38:52.223Z,6.50
2022-08-09T04:41:19.653Z,4.90
2022-08-09T04:44:06.684Z,4.95
2022-08-09T04:46:57.636Z,5.05
2022-08-09T04:49:40.058Z,4.32
2022-08-09T04:52:12.301Z,6.13
2022-08-09T04:54:52.217Z,4.78
2022-08-09T04:57:24.047Z,5.82
2022-08-09T04:59:56.590Z,6.15
2022-08-09T05:02:24.981Z,5.72
2022-08-09T05:04:55.553Z,6.47
2022-08-09T05:07:24.697Z,4.97
2022-08-09T05:09:55.015Z,6.65
2022-08-09T05:12:23.064Z,7.30
2022-08-09T05:14:50.323Z,7.72
2022-08-09T05:18:39.707Z,6.20
2022-08-09T05:20:06.284Z,6.38
2022-08-09T05:23:50.582Z,5.55
2022-08-09T05:25:21.242Z,7.60
2022-08-09T05:27:48.763Z,6.95
2022-08-09T05:30:19.472Z,9.13
2022-08-09T05:32:50.886Z,7.85
2022-08-09T05:35:21.964Z,5.20
2022-08-09T05:37:50.699Z,7.13
2022-08-09T05:40:18.316Z,5.80
2022-08-09T05:42:46.206Z,6.25
2022-08-09T05:45:14.659Z,6.38
2022-08-09T05:47:52.559Z,7.47
2022-08-09T05:50:50.487Z,6.53
2022-08-09T05:53:32.496Z,6.47
2022-08-09T05:56:00.220Z,7.55
2022-08-09T05:58:28.845Z,8.13
2022-08-09T06:00:56.294Z,5.90
2022-08-09T06:03:34.741Z,7.40
2022-08-09T06:06:11.436Z,8.98
2022-08-09T06:08:39.140Z,9.02
2022-08-09T06:11:17.558Z,7.93
2022-08-09T06:13:45.777Z,8.45
2022-08-09T06:16:14.530Z,7.05
2022-08-09T06:18:43.468Z,8.77
2022-08-09T06:21:11.284Z,8.43
2022-08-09T06:23:57.715Z,10.80
2022-08-09T06:26:28.501Z,11.93
2022-08-09T06:28:59.261Z,10.48
2022-08-09T06:31:30.475Z,11.63
2022-08-09T06:33:58.927Z,13.63
2022-08-09T06:36:29.806Z,11.48
2022-08-09T06:38:57.796Z,10.93
2022-08-09T06:41:40.582Z,12.05
2022-08-09T06:44:18.187Z,14.50
2022-08-09T06:46:46.009Z,10.85
2022-08-09T06:49:16.110Z,12.20
2022-08-09T06:51:50.136Z,9.90
2022-08-09T06:54:20.345Z,12.48
2022-08-09T06:56:47.593Z,10.23
2022-08-09T07:00:52.108Z,12.38
2022-08-09T07:02:04.746Z,11.50
2022-08-09T07:04:32.571Z,13.52
2022-08-09T07:07:00.132Z,15.07
2022-08-09T07:09:54.931Z,10.80
2022-08-09T07:12:18.789Z,10.38
2022-08-09T07:14:51.159Z,13.23
2022-08-09T07:17:20.279Z,10.68
2022-08-09T07:19:55.137Z,13.23
2022-08-09T07:22:34.413Z,11.60
2022-08-09T07:25:05.066Z,12.93
2022-08-09T07:27:42.951Z,14.30
2022-08-09T07:30:20.297Z,13.55
2022-08-09T07:32:51.480Z,12.15
2022-08-09T07:35:19.150Z,11.63
2022-08-09T07:37:49.196Z,11.05
2022-08-09T07:42:54.133Z,12.82
2022-08-09T07:45:39.193Z,13.20
2022-08-09T07:48:25.810Z,12.25
2022-08-09T07:51:10.190Z,11.98
2022-08-09T07:54:04.247Z,14.10
2022-08-09T07:56:34.082Z,17.08
2022-08-09T07:59:01.536Z,12.77
2022-08-09T08:01:33.125Z,13.23
2022-08-09T08:04:02.622Z,11.77
2022-08-09T08:06:31.922Z,13.70
2022-08-09T08:09:04.967Z,14.63
2022-08-09T08:12:10.886Z,12.10
2022-08-09T08:14:24.025Z,12.10
2022-08-09T08:17:07.570Z,13.93
2022-08-09T08:19:36.288Z,12.35
2022-08-09T08:22:04.780Z,12.52
2022-08-09T08:24:39.842Z,11.93
2022-08-09T08:27:17.088Z,10.38
2022-08-09T08:29:50.221Z,10.85
2022-08-09T08:32:28.736Z,10.30
2022-08-09T08:34:59.000Z,11.25
2022-08-09T08:37:41.429Z,11.48
2022-08-09T08:40:16.878Z,7.95
2022-08-09T08:42:47.293Z,10.82
2022-08-09T08:45:14.759Z,7.53
2022-08-09T08:47:42.805Z,8.55
2022-08-09T08:50:15.508Z,9.77
2022-08-09T08:52:58.498Z,9.30
2022-08-09T08:55:32.211Z,11.38
2022-08-09T08:57:59.462Z,7.88
2022-08-09T09:00:30.391Z,7.60
2022-08-09T09:03:11.768Z,7.97
2022-08-09T09:05:59.593Z,8.20
2022-08-09T09:08:30.849Z,7.22
2022-08-09T09:11:04.041Z,6.00
2022-08-09T09:13:47.432Z,5.40
2022-08-09T09:16:30.692Z,6.25
2022-08-09T09:22:15.886Z,5.65
2022-08-09T09:24:48.124Z,4.05
2022-08-09T09:28:03.035Z,5.97
2022-08-09T09:30:33.047Z,5.43
2022-08-09T09:33:15.707Z,4.78
2022-08-09T09:36:02.410Z,4.57
2022-08-09T09:38:47.407Z,5.30
2022-08-09T09:41:25.014Z,6.95
2022-08-09T09:44:12.148Z,5.05
2022-08-09T09:46:46.221Z,4.03
2022-08-09T09:49:56.478Z,5.75
2022-08-09T09:52:33.501Z,4.65
2022-08-09T09:55:28.188Z,6.45
2022-08-09T09:58:18.706Z,5.13
2022-08-09T10:00:55.456Z,5.50
2022-08-09T10:03:57.169Z,3.97
2022-08-09T10:06:28.259Z,6.20
2022-08-09T10:09:12.042Z,5.57
2022-08-09T10:12:12.837Z,4.78
2022-08-09T10:14:49.873Z,3.40
2022-08-09T10:20:35.640Z,5.53
2022-08-09T10:23:20.274Z,4.85
2022-08-09T10:26:06.837Z,6.40
2022-08-09T10:28:38.208Z,6.07
2022-08-09T10:34:08.941Z,4.78
2022-08-09T10:36:42.269Z,5.65
2022-08-09T10:39:15.972Z,5.55
2022-08-09T10:41:47.691Z,4.10
2022-08-09T10:44:19.065Z,7.55
2022-08-09T10:47:28.123Z,4.10
2022-08-09T10:50:09.859Z,5.50
2022-08-09T10:52:53.869Z,4.28
2022-08-09T10:58:04.232Z,3.85
2022-08-09T11:00:41.836Z,6.03
2022-08-09T11:03:46.770Z,5.38
2022-08-09T11:06:20.977Z,6.35
2022-08-09T11:08:53.032Z,5.80
2022-08-09T11:11:21.778Z,4.10
2022-08-09T11:14:28.559Z,5.97
2022-08-09T11:16:57.242Z,5.07
2022-08-09T11:20:12.108Z,3.53
2022-08-09T11:22:56.708Z,5.47
2022-08-09T11:25:44.922Z,5.05
2022-08-09T11:28:34.027Z,3.53
2022-08-09T11:31:50.106Z,4.85
2022-08-09T11:34:23.506Z,4.07
2022-08-09T11:36:50.655Z,5.78
2022-08-09T11:39:18.536Z,5.15
2022-08-09T11:41:48.860Z,3.47
2022-08-09T11:44:16.063Z,7.83
2022-08-09T11:46:57.483Z,4.80
2022-08-09T11:50:53.984Z,3.83
2022-08-09T11:53:20.863Z,3.63
2022-08-09T11:55:52.495Z,6.38
2022-08-09T11:58:32.448Z,6.32
2022-08-09T12:01:08.838Z,5.20
2022-08-09T12:03:55.473Z,5.47
2022-08-09T12:06:32.589Z,4.90
2022-08-09T12:09:19.120Z,4.43
2022-08-09T12:12:03.520Z,5.25
2022-08-09T12:14:36.898Z,6.32
2022-08-09T12:17:33.876Z,5.38
2022-08-09T12:20:02.694Z,4.72
2022-08-09T12:22:31.811Z,6.72
2022-08-09T12:25:37.989Z,5.28
2022-08-09T12:28:58.770Z,5.60
2022-08-09T12:31:11.100Z,4.93
2022-08-09T12:34:00.963Z,6.65
2022-08-09T12:36:32.351Z,6.80
2022-08-09T12:39:02.244Z,6.05
2022-08-09T12:41:39.232Z,5.20
2022-08-09T12:44:09.993Z,4.60
2022-08-09T12:46:43.361Z,5.60
2022-08-09T12:49:16.779Z,4.80
2022-08-09T12:52:01.282Z,4.28
2022-08-09T12:56:11.450Z,6.80
2022-08-09T12:57:46.600Z,4.07
2022-08-09T13:00:25.093Z,7.63
2022-08-09T13:02:58.987Z,5.22
2022-08-09T13:05:50.822Z,5.20
2022-08-09T13:08:16.213Z,5.00
2022-08-09T13:11:01.776Z,4.50
2022-08-09T13:14:36.898Z,5.13
2022-08-09T13:16:50.642Z,3.97
2022-08-09T13:20:09.012Z,4.22
2022-08-09T13:22:36.029Z,6.30
2022-08-09T13:25:04.894Z,4.68
2022-08-09T13:27:39.847Z,5.97
2022-08-09T13:30:51.315Z,4.88
2022-08-09T13:33:12.023Z,5.35
2022-08-09T13:36:38.548Z,5.50
2022-08-09T13:38:55.001Z,6.35
2022-08-09T13:41:57.506Z,5.68
2022-08-09T13:44:13.732Z,5.05
2022-08-09T13:47:17.862Z,4.75
2022-08-09T13:49:37.573Z,5.20
2022-08-09T13:52:09.070Z,7.60
2022-08-09T13:54:42.911Z,4.15
2022-08-09T13:57:36.628Z,9.95
2022-08-09T14:00:12.772Z,5.30
2022-08-09T14:02:42.676Z,3.78
2022-08-09T14:06:00.333Z,4.70
2022-08-09T14:08:17.563Z,5.05
2022-08-09T14:10:52.628Z,5.70
2022-08-09T14:14:15.946Z,6.50
2022-08-09T14:16:13.894Z,4.72
2022-08-09T14:18:45.505Z,4.05
2022-08-09T14:21:20.667Z,3.65
2022-08-09T14:23:54.787Z,6.78
2022-08-09T14:26:32.720Z,5.97
2022-08-09T14:29:25.592Z,3.17
2022-08-09T14:32:04.594Z,7.05
2022-08-09T14:34:41.157Z,6.93
2022-08-09T14:37:08.898Z,4.95
2022-08-09T14:39:48.074Z,3.83
2022-08-09T14:42:39.374Z,6.80
2022-08-09T14:46:45.937Z,5.47
2022-08-09T14:50:31.641Z,5.10
2022-08-09T14:53:11.243Z,5.63
2022-08-09T14:55:42.146Z,4.15
2022-08-09T14:58:10.763Z,4.35
2022-08-09T15:00:42.354Z,4.38
2022-08-09T15:03:16.666Z,4.40
2022-08-09T15:05:52.613Z,4.65
2022-08-09T15:08:26.247Z,4.80
2022-08-09T15:11:00.890Z,7.22
2022-08-09T15:13:47.878Z,4.55
2022-08-09T15:16:16.635Z,3.03
2022-08-09T15:18:43.918Z,4.60
2022-08-09T15:21:55.329Z,3.50
2022-08-09T15:24:12.445Z,4.03
2022-08-09T15:30:48.767Z,3.72
2022-08-09T15:32:01.084Z,6.03
2022-08-09T15:34:33.971Z,4.95
2022-08-09T15:37:03.849Z,4.20
2022-08-09T15:39:34.873Z,3.28
2022-08-09T15:42:19.394Z,4.35
2022-08-09T15:44:49.621Z,4.63
2022-08-09T15:47:22.667Z,5.07
2022-08-09T15:50:03.593Z,5.05
2022-08-09T15:52:32.281Z,4.57
2022-08-09T15:55:01.084Z,3.97
2022-08-09T15:57:35.589Z,4.43
2022-08-09T16:00:24.493Z,4.72
2022-08-09T16:02:57.126Z,3.65
2022-08-09T16:05:47.476Z,3.63
2022-08-09T16:08:30.417Z,4.32
2022-08-09T16:11:02.103Z,4.50
2022-08-09T16:14:03.783Z,5.53
2022-08-09T16:16:20.174Z,4.60
2022-08-09T16:18:53.410Z,5.50
2022-08-09T16:21:25.460Z,4.40
2022-08-09T16:23:58.603Z,4.65
2022-08-09T16:26:34.524Z,5.22
2022-08-09T16:29:12.421Z,4.93
2022-08-09T16:32:19.979Z,5.43
2022-08-09T16:34:44.786Z,5.70
2022-08-09T16:37:50.652Z,4.13
2022-08-09T16:40:08.810Z,4.40
2022-08-09T16:42:36.692Z,3.80
2022-08-09T16:45:05.467Z,2.50
2022-08-09T16:48:40.589Z,4.07
2022-08-09T16:50:32.309Z,4.57
2022-08-09T16:53:01.955Z,5.03
2022-08-09T16:55:58.451Z,4.20
2022-08-09T17:00:48.650Z,4.38
2022-08-09T17:03:20.868Z,3.83
2022-08-09T17:06:06.717Z,3.10
2022-08-09T17:08:56.885Z,5.03
2022-08-09T17:11:40.430Z,3.83
2022-08-09T17:14:25.447Z,3.53
2022-08-09T17:17:01.460Z,3.92
2022-08-09T17:19:47.185Z,5.07
2022-08-09T17:22:29.010Z,3.88
2022-08-09T17:25:03.263Z,3.35
2022-08-09T17:27:32.679Z,3.88
2022-08-09T17:29:59.979Z,3.38
2022-08-09T17:32:38.331Z,5.25
2022-08-09T17:35:11.479Z,6.07
2022-08-09T17:38:02.098Z,5.57
2022-08-09T17:40:33.253Z,3.90
2022-08-09T17:43:32.671Z,4.80
2022-08-09T17:46:03.581Z,3.88
2022-08-09T17:48:39.880Z,4.72
2022-08-09T17:51:19.569Z,7.50
2022-08-09T17:53:53.494Z,5.13
2022-08-09T17:56:28.736Z,3.80
2022-08-09T17:59:11.530Z,5.47
2022-08-09T18:04:27.080Z,4.10
2022-08-09T18:06:56.085Z,4.15
2022-08-09T18:09:35.681Z,4.90
2022-08-09T18:12:17.304Z,6.03
2022-08-09T18:14:54.236Z,3.65
2022-08-09T18:17:27.623Z,5.03
2022-08-09T18:20:54.059Z,3.63
2022-08-09T18:23:04.684Z,4.43
2022-08-09T18:25:51.063Z,5.90
2022-08-09T18:30:41.057Z,3.83
2022-08-09T18:31:14.198Z,3.20
2022-08-09T18:33:45.201Z,3.45
2022-08-09T18:36:26.099Z,4.38
2022-08-09T18:39:02.062Z,3.50
2022-08-09T18:41:34.514Z,5.78
2022-08-09T18:44:04.055Z,3.80
2022-08-09T18:46:47.374Z,3.53
2022-08-09T18:49:23.634Z,4.47
2022-08-09T18:51:57.729Z,4.10
2022-08-09T18:54:28.603Z,4.30
2022-08-09T18:57:06.158Z,4.18
2022-08-09T18:59:37.322Z,5.75
2022-08-09T19:02:17.525Z,8.07
2022-08-09T19:04:47.535Z,5.38
2022-08-09T19:07:16.454Z,4.97
2022-08-09T19:10:16.998Z,4.28
2022-08-09T19:12:32.551Z,5.45
2022-08-09T19:15:06.273Z,6.07
2022-08-09T19:17:39.763Z,5.50
2022-08-09T19:20:21.042Z,3.38
2022-08-09T19:22:54.058Z,4.60
2022-08-09T19:25:42.815Z,4.00
2022-08-09T19:28:13.370Z,4.30
2022-08-09T19:30:44.422Z,3.70
2022-08-09T19:33:19.364Z,4.75
2022-08-09T19:35:56.899Z,4.20
2022-08-09T19:38:25.468Z,4.05
2022-08-09T19:40:53.076Z,5.72
2022-08-09T19:44:00.592Z,4.53
2022-08-09T19:46:14.930Z,3.90
2022-08-09T19:49:00.520Z,3.85
2022-08-09T19:51:30.687Z,4.43
2022-08-09T19:53:59.681Z,2.97
2022-08-09T19:56:29.008Z,4.18
2022-08-09T19:59:33.351Z,5.50
2022-08-09T20:01:53.194Z,3.65
2022-08-09T20:04:37.579Z,3.90
2022-08-09T20:07:16.035Z,3.28
2022-08-09T20:09:49.344Z,3.75
2022-08-09T20:12:33.188Z,4.45
2022-08-09T20:16:37.518Z,5.35
2022-08-09T20:17:54.448Z,3.72
2022-08-09T20:20:22.486Z,3.33
2022-08-09T20:22:56.095Z,4.28
2022-08-09T20:25:25.373Z,4.18
2022-08-09T20:27:52.776Z,4.22
2022-08-09T20:30:23.697Z,4.40
2022-08-09T20:32:52.334Z,4.57
2022-08-09T20:35:21.241Z,5.28
2022-08-09T20:38:23.715Z,4.35
2022-08-09T20:40:36.597Z,5.05
2022-08-09T20:43:17.969Z,7.45
2022-08-09T20:45:59.168Z,4.55
2022-08-09T21:00:19.519Z,3.72
2022-08-09T21:02:59.643Z,3.95
2022-08-09T21:05:57.285Z,3.40
2022-08-09T21:08:14.715Z,4.63
2022-08-09T21:10:44.143Z,3.85
2022-08-09T21:13:21.367Z,3.85
2022-08-09T21:15:51.956Z,5.60
2022-08-09T21:20:54.558Z,6.50
2022-08-09T21:23:36.127Z,5.57
2022-08-09T21:26:11.177Z,4.50
2022-08-09T21:28:38.387Z,4.68
2022-08-09T21:31:17.637Z,3.95
2022-08-09T21:33:52.495Z,3.17
2022-08-09T21:36:22.969Z,4.93
2022-08-09T21:38:57.943Z,6.32
2022-08-09T21:42:04.872Z,4.85
2022-08-09T21:44:34.780Z,7.88
2022-08-09T21:47:07.621Z,4.50
2022-08-09T21:49:42.653Z,5.53
2022-08-09T21:52:18.104Z,4.43
2022-08-09T21:54:49.556Z,7.32
2022-08-09T21:57:25.484Z,5.75
2022-08-09T22:00:12.809Z,5.40
2022-08-09T22:02:40.205Z,4.20
2022-08-09T22:05:22.473Z,4.82
2022-08-09T22:07:54.020Z,4.38
2022-08-09T22:10:23.294Z,5.30
2022-08-09T22:12:52.320Z,4.47
2022-08-09T22:15:20.745Z,5.15
2022-08-09T22:18:00.637Z,4.57
2022-08-09T22:20:31.328Z,4.50
2022-08-09T22:22:58.729Z,5.38
2022-08-09T22:26:07.585Z,6.65
2022-08-09T22:28:13.637Z,8.05
2022-08-09T22:30:56.652Z,5.47
2022-08-09T22:33:48.609Z,4.32
2022-08-09T22:36:19.431Z,6.45
2022-08-09T22:38:47.055Z,5.63
2022-08-09T22:41:14.210Z,6.97
2022-08-09T22:44:03.430Z,7.30
2022-08-09T22:48:12.975Z,3.95
2022-08-09T22:49:15.950Z,8.35
2022-08-09T22:51:49.991Z,8.40
2022-08-09T22:54:27.285Z,5.60
2022-08-09T22:56:57.379Z,7.45
2022-08-09T22:59:56.405Z,4.90
2022-08-09T23:02:20.111Z,7.20
2022-08-09T23:04:54.296Z,11.35
2022-08-09T23:08:23.128Z,6.10
2022-08-09T23:10:30.203Z,5.05
2022-08-09T23:12:58.163Z,7.25
2022-08-09T23:15:25.799Z,10.90
2022-08-09T23:17:52.909Z,7.53
2022-08-09T23:20:20.046Z,7.47
2022-08-09T23:22:47.096Z,6.45
2022-08-09T23:25:14.353Z,6.18
2022-08-09T23:27:57.334Z,5.22
2022-08-09T23:30:29.300Z,6.97
2022-08-09T23:32:59.600Z,6.15
2022-08-09T23:35:26.875Z,4.40
2022-08-09T23:37:54.028Z,5.60
2022-08-09T23:40:22.311Z,6.35
2022-08-09T23:42:49.449Z,6.43
2022-08-09T23:45:37.506Z,5.45
2022-08-09T23:48:08.574Z,6.93
2022-08-09T23:50:36.384Z,6.70
2022-08-09T23:53:03.575Z,4.30
2022-08-09T23:55:30.766Z,6.43
2022-08-09T23:58:09.454Z,7.22
